Time;durP1;ratioP1;P1;durP2;ratioP2;P2;SDS_P1;SDS_P2;PMS_P1;PMS_P2;Temp;Humidity;BMP_temperature;BMP_pressure;BME280_temperature;BME280_humidity;BME280_pressure;Samples;Min_cycle;Max_cycle;Signal;HPM_P1;HPM_P2
2021/09/20 00:01:17;;;;;;;11.40;8.50;;;;;;;9.85;98.91;101418.34;4922749;29;20534;-80
2021/09/20 00:03:43;;;;;;;12.00;8.02;;;;;;;9.81;98.81;101411.56;4927497;29;20044;-78
2021/09/20 00:06:08;;;;;;;12.02;8.15;;;;;;;9.78;98.92;101417.22;4925861;29;20047;-79
2021/09/20 00:08:33;;;;;;;12.63;7.88;;;;;;;9.76;99.04;101425.41;4924132;29;20063;-78
2021/09/20 00:10:59;;;;;;;12.25;8.45;;;;;;;9.75;99.11;101418.34;4925112;28;20051;-79
2021/09/20 00:13:24;;;;;;;13.63;8.30;;;;;;;9.72;98.65;101429.34;4922055;29;20048;-82
2021/09/20 00:15:50;;;;;;;11.50;8.57;;;;;;;9.65;99.24;101421.06;4925266;28;20734;-80
2021/09/20 00:18:15;;;;;;;11.57;8.50;;;;;;;9.69;99.30;101429.66;4926793;29;20557;-79
2021/09/20 00:20:41;;;;;;;12.77;8.68;;;;;;;9.66;99.60;101422.72;4924645;29;20074;-79
2021/09/20 00:23:06;;;;;;;15.50;8.52;;;;;;;9.59;99.48;101423.47;4924874;29;20134;-80
2021/09/20 00:25:31;;;;;;;12.98;8.25;;;;;;;9.57;99.73;101412.88;4923833;29;20422;-79
2021/09/20 00:27:57;;;;;;;12.00;8.48;;;;;;;9.55;99.78;101427.41;4922157;28;20132;-79
2021/09/20 00:30:22;;;;;;;13.00;8.70;;;;;;;9.51;99.66;101421.47;4925142;29;20119;-80
2021/09/20 00:32:48;;;;;;;11.75;8.70;;;;;;;9.45;100.00;101427.41;4922671;29;20131;-79
2021/09/20 00:35:13;;;;;;;11.80;8.98;;;;;;;9.39;100.00;101423.47;4940629;28;20494;-79
2021/09/20 00:37:39;;;;;;;12.13;8.90;;;;;;;9.39;100.00;101420.78;4924180;28;20072;-81
2021/09/20 00:40:05;;;;;;;12.63;8.88;;;;;;;9.36;100.00;101415.72;4922888;29;20048;-79
2021/09/20 00:42:31;;;;;;;12.35;8.50;;;;;;;9.30;100.00;101423.47;4924657;29;20055;-79
2021/09/20 00:44:56;;;;;;;13.00;8.50;;;;;;;9.31;100.00;101425.16;4924291;29;20044;-79
2021/09/20 00:47:22;;;;;;;13.07;9.07;;;;;;;9.27;100.00;101409.38;4937468;28;20442;-79
2021/09/20 00:49:47;;;;;;;15.50;9.70;;;;;;;9.25;100.00;101413.16;4934782;28;20051;-82
2021/09/20 00:52:13;;;;;;;12.70;9.27;;;;;;;9.24;100.00;101415.00;4934424;28;20134;-80
2021/09/20 00:54:38;;;;;;;14.60;9.40;;;;;;;9.19;100.00;101416.41;4937294;28;20675;-80
2021/09/20 00:57:04;;;;;;;15.07;9.98;;;;;;;9.18;100.00;101412.91;4942389;28;20194;-79
2021/09/20 00:59:30;;;;;;;12.85;9.30;;;;;;;9.18;100.00;101417.41;4944077;28;20043;-79
2021/09/20 01:01:56;;;;;;;11.82;9.13;;;;;;;9.15;100.00;101410.50;4942773;28;20054;-82
2021/09/20 01:04:21;;;;;;;16.15;9.82;;;;;;;9.12;100.00;101415.28;4941558;28;20532;-81
2021/09/20 01:06:47;;;;;;;12.90;9.35;;;;;;;9.09;100.00;101415.53;4944738;28;20085;-79
2021/09/20 01:09:13;;;;;;;13.60;9.30;;;;;;;9.08;100.00;101414.72;4941891;28;20070;-79
2021/09/20 01:11:38;;;;;;;12.85;8.93;;;;;;;9.03;100.00;101411.59;4938274;28;20405;-79
2021/09/20 01:14:04;;;;;;;14.48;10.15;;;;;;;9.01;100.00;101403.72;4933507;28;20105;-81
2021/09/20 01:16:29;;;;;;;17.15;10.05;;;;;;;9.03;100.00;101406.25;4943463;28;20056;-79
2021/09/20 01:18:55;;;;;;;17.92;10.93;;;;;;;8.99;100.00;101415.53;4940935;28;20075;-79
2021/09/20 01:21:20;;;;;;;15.52;10.20;;;;;;;8.98;100.00;101411.19;4942844;28;20556;-80
2021/09/20 01:23:46;;;;;;;15.45;10.77;;;;;;;9.01;100.00;101408.22;4944588;28;20051;-80
2021/09/20 01:26:13;;;;;;;20.75;11.40;;;;;;;9.02;100.00;101409.91;4940149;28;20051;-81
2021/09/20 01:28:40;;;;;;;18.05;11.20;;;;;;;8.99;100.00;101405.69;4940723;28;20086;-80
2021/09/20 01:31:06;;;;;;;16.73;10.52;;;;;;;8.99;100.00;101410.19;4937159;28;20130;-79
2021/09/20 01:33:31;;;;;;;15.70;10.90;;;;;;;8.98;100.00;101405.84;4937574;28;20409;-80
2021/09/20 01:35:57;;;;;;;17.23;12.23;;;;;;;8.99;100.00;101404.84;4942611;28;20053;-79
2021/09/20 01:38:22;;;;;;;18.15;11.18;;;;;;;9.00;100.00;101406.53;4943677;28;20043;-79
2021/09/20 01:40:48;;;;;;;16.45;11.15;;;;;;;8.99;100.00;101407.50;4948662;28;20059;-79
2021/09/20 01:43:13;;;;;;;16.27;11.13;;;;;;;8.95;100.00;101393.56;4948048;28;20051;-79
2021/09/20 01:45:39;;;;;;;16.58;10.65;;;;;;;8.95;100.00;101403.44;4948428;28;20057;-80
2021/09/20 01:48:05;;;;;;;16.35;10.95;;;;;;;8.94;100.00;101407.91;4946407;28;20058;-80
2021/09/20 01:50:31;;;;;;;16.42;11.50;;;;;;;8.99;100.00;101410.19;4943994;28;20498;-80
2021/09/20 01:52:56;;;;;;;20.20;11.50;;;;;;;8.95;100.00;101409.63;4947858;28;20270;-79
2021/09/20 01:55:22;;;;;;;15.15;10.93;;;;;;;8.97;100.00;101404.13;4946082;28;20059;-79
2021/09/20 01:57:47;;;;;;;15.18;11.32;;;;;;;8.95;100.00;101404.28;4947778;28;20398;-81
2021/09/20 02:00:14;;;;;;;19.10;10.95;;;;;;;8.92;100.00;101409.03;4944473;28;20082;-81
2021/09/20 02:02:41;;;;;;;16.50;10.73;;;;;;;8.91;100.00;101415.38;4939971;28;20288;-79
2021/09/20 02:05:08;;;;;;;15.10;10.98;;;;;;;8.87;100.00;101413.97;4945734;28;20775;-79
2021/09/20 02:07:34;;;;;;;16.30;11.38;;;;;;;8.87;100.00;101411.31;4947550;28;20058;-80
2021/09/20 02:09:59;;;;;;;17.15;11.13;;;;;;;8.85;100.00;101405.25;4944053;28;20055;-79
2021/09/20 02:12:24;;;;;;;17.20;11.27;;;;;;;8.82;100.00;101407.19;4946051;28;20102;-80
2021/09/20 02:14:50;;;;;;;18.45;12.18;;;;;;;8.85;100.00;101402.56;4942911;28;20134;-82
2021/09/20 02:17:15;;;;;;;18.63;12.30;;;;;;;8.88;100.00;101413.81;4943061;28;20043;-82
2021/09/20 02:19:41;;;;;;;17.45;12.27;;;;;;;8.85;100.00;101411.44;4936457;28;20106;-79
2021/09/20 02:22:07;;;;;;;18.50;11.82;;;;;;;8.84;100.00;101414.25;4940933;28;20047;-79
2021/09/20 02:24:33;;;;;;;16.92;11.35;;;;;;;8.78;100.00;101412.97;4927688;29;20050;-79
2021/09/20 02:26:59;;;;;;;16.02;11.30;;;;;;;8.78;100.00;101419.19;4923155;28;20083;-80
2021/09/20 02:29:24;;;;;;;18.02;11.27;;;;;;;8.81;100.00;101418.06;4938357;28;20055;-79
2021/09/20 02:31:50;;;;;;;18.65;11.77;;;;;;;8.78;100.00;101419.19;4939434;28;20048;-79
2021/09/20 02:34:16;;;;;;;16.13;11.18;;;;;;;8.78;100.00;101413.81;4939157;28;20055;-79
2021/09/20 02:36:41;;;;;;;18.20;11.93;;;;;;;8.75;100.00;101424.81;4941925;28;20130;-79
2021/09/20 02:39:07;;;;;;;20.15;12.70;;;;;;;8.76;100.00;101421.13;4927642;28;20044;-79
2021/09/20 02:41:32;;;;;;;17.48;12.15;;;;;;;8.81;100.00;101423.41;4937743;28;20517;-78
2021/09/20 02:43:58;;;;;;;16.08;11.55;;;;;;;8.76;100.00;101420.28;4937274;28;20524;-80
2021/09/20 02:46:23;;;;;;;19.58;13.18;;;;;;;8.76;100.00;101415.78;4934668;28;20422;-79
2021/09/20 02:48:49;;;;;;;17.30;11.75;;;;;;;8.77;100.00;101417.47;4935923;28;20134;-81
2021/09/20 02:51:14;;;;;;;16.55;11.73;;;;;;;8.78;100.00;101413.81;4938325;28;20040;-79
2021/09/20 02:53:40;;;;;;;18.45;12.90;;;;;;;8.86;100.00;101417.63;4938802;28;20048;-79
2021/09/20 02:56:06;;;;;;;17.52;11.80;;;;;;;8.76;100.00;101415.78;4936599;28;20575;-79
2021/09/20 02:58:32;;;;;;;19.63;12.93;;;;;;;8.81;100.00;101418.91;4940661;28;20556;-79
2021/09/20 03:00:57;;;;;;;18.60;12.00;;;;;;;8.81;100.00;101418.91;4936076;28;20079;-80
2021/09/20 03:03:23;;;;;;;17.63;12.35;;;;;;;8.85;100.00;101421.28;4936129;28;20503;-82
2021/09/20 03:05:48;;;;;;;17.40;12.38;;;;;;;8.82;100.00;101419.75;4935125;28;20051;-81
2021/09/20 03:08:14;;;;;;;16.63;12.32;;;;;;;8.84;100.00;101419.63;4942025;28;20142;-79
2021/09/20 03:10:40;;;;;;;19.48;12.48;;;;;;;8.81;100.00;101418.91;4933964;28;20056;-79
2021/09/20 03:13:05;;;;;;;20.58;13.20;;;;;;;8.79;100.00;101420.00;4935964;28;20059;-79
2021/09/20 03:15:31;;;;;;;19.00;13.00;;;;;;;8.73;100.00;101424.09;4937342;28;20051;-82
2021/09/20 03:17:57;;;;;;;18.35;12.73;;;;;;;8.72;100.00;101424.25;4935542;28;20073;-79
2021/09/20 03:20:22;;;;;;;20.52;13.73;;;;;;;8.71;100.00;101428.72;4940907;28;20119;-82
2021/09/20 03:22:47;;;;;;;19.92;12.50;;;;;;;8.72;100.00;101433.09;4934752;28;20082;-80
2021/09/20 03:25:13;;;;;;;18.85;13.48;;;;;;;8.76;100.00;101433.66;4934671;28;20069;-82
2021/09/20 03:27:39;;;;;;;20.48;13.70;;;;;;;8.75;100.00;101437.34;4937206;28;20051;-79
2021/09/20 03:30:06;;;;;;;21.23;12.68;;;;;;;8.66;100.00;101430.97;4936300;28;20042;-81
2021/09/20 03:32:31;;;;;;;18.95;12.60;;;;;;;8.68;100.00;101437.03;4953679;28;20365;-80
2021/09/20 03:34:57;;;;;;;20.33;13.80;;;;;;;8.72;100.00;101448.31;4937467;28;20510;-79
2021/09/20 03:37:22;;;;;;;20.45;13.27;;;;;;;8.66;100.00;101436.34;4924180;29;20084;-82
2021/09/20 03:39:48;;;;;;;18.80;12.30;;;;;;;8.67;100.00;101447.88;4925562;29;20052;-80
2021/09/20 03:42:13;;;;;;;19.70;12.50;;;;;;;8.65;100.00;101444.47;4923218;29;20138;-80
2021/09/20 03:44:39;;;;;;;19.33;12.00;;;;;;;8.64;100.00;101446.31;4927399;29;20531;-78
2021/09/20 03:47:04;;;;;;;18.85;12.73;;;;;;;8.63;100.00;101441.97;4923241;29;20054;-80
2021/09/20 03:49:30;;;;;;;19.98;12.60;;;;;;;8.62;100.00;101442.91;4927236;29;20058;-79
2021/09/20 03:51:55;;;;;;;19.38;12.85;;;;;;;8.59;100.00;101448.53;4927404;29;20048;-78
2021/09/20 03:54:21;;;;;;;18.15;12.52;;;;;;;8.57;100.00;101447.81;4933461;28;20059;-82
2021/09/20 03:56:46;;;;;;;17.05;13.02;;;;;;;8.59;100.00;101449.38;4935179;28;20043;-79
2021/09/20 03:59:11;;;;;;;17.55;12.18;;;;;;;8.58;100.00;101452.22;4930923;28;20044;-78
2021/09/20 04:01:37;;;;;;;18.75;13.20;;;;;;;8.58;100.00;101453.06;4954928;28;20059;-79
2021/09/20 04:04:02;;;;;;;19.50;12.57;;;;;;;8.56;100.00;101455.00;4936219;28;20066;-79
2021/09/20 04:06:28;;;;;;;20.52;13.13;;;;;;;8.50;100.00;101452.03;4943044;28;20050;-80
2021/09/20 04:08:58;;;;;;;19.40;13.32;;;;;;;8.50;100.00;101450.19;4936096;28;20830;-78
2021/09/20 04:11:23;;;;;;;19.88;13.50;;;;;;;8.51;100.00;101454.56;4935697;28;20057;-79
2021/09/20 04:13:49;;;;;;;22.30;14.90;;;;;;;8.56;100.00;101459.50;4935593;28;20051;-82
2021/09/20 04:16:14;;;;;;;20.13;14.20;;;;;;;8.61;100.00;101456.44;4941513;28;20050;-82
2021/09/20 04:18:39;;;;;;;18.80;14.43;;;;;;;8.58;100.00;101458.41;4940917;28;20053;-80
2021/09/20 04:21:05;;;;;;;21.48;15.10;;;;;;;8.55;100.00;101457.84;4942650;28;20047;-79
2021/09/20 04:23:30;;;;;;;21.05;15.05;;;;;;;8.55;100.00;101460.50;4945027;28;20071;-79
2021/09/20 04:25:55;;;;;;;19.70;13.73;;;;;;;8.52;100.00;101466.97;4950510;28;20067;-79
2021/09/20 04:28:22;;;;;;;22.25;15.00;;;;;;;8.48;100.00;101470.03;4939457;28;20082;-85
2021/09/20 04:30:48;;;;;;;21.88;15.25;;;;;;;8.48;100.00;101478.06;4939996;28;20051;-80
2021/09/20 04:33:18;;;;;;;19.88;14.93;;;;;;;8.46;100.00;101474.66;4937939;28;20054;-80
2021/09/20 04:35:44;;;;;;;23.65;15.88;;;;;;;8.45;100.00;101486.34;4941107;28;20538;-81
2021/09/20 04:38:11;;;;;;;23.35;15.13;;;;;;;8.44;100.00;101480.16;4941340;28;21011;-79
2021/09/20 04:40:37;;;;;;;22.55;15.63;;;;;;;8.46;100.00;101483.56;4940760;28;20446;-82
2021/09/20 04:43:04;;;;;;;23.23;15.63;;;;;;;8.46;100.00;101485.34;4939822;28;20530;-80
2021/09/20 04:45:29;;;;;;;25.90;16.20;;;;;;;8.46;100.00;101488.91;4938468;28;20075;-81
2021/09/20 04:47:56;;;;;;;21.55;15.93;;;;;;;8.45;100.00;101497.91;4912062;28;20134;-80
2021/09/20 04:50:22;;;;;;;22.52;15.57;;;;;;;8.46;100.00;101491.59;4947656;28;20061;-81
2021/09/20 04:52:48;;;;;;;23.80;14.65;;;;;;;8.45;100.00;101489.03;4944093;28;20075;-80
2021/09/20 04:55:13;;;;;;;24.17;15.05;;;;;;;8.41;100.00;101490.28;4941204;28;20141;-81
2021/09/20 04:57:38;;;;;;;24.17;14.98;;;;;;;8.38;100.00;101495.88;4918687;29;20055;-81
2021/09/20 05:00:05;;;;;;;21.67;15.55;;;;;;;8.41;100.00;101495.63;4924433;28;20039;-82
2021/09/20 05:02:31;;;;;;;21.90;14.85;;;;;;;8.41;100.00;101501.81;4926518;28;20056;-80
2021/09/20 05:04:56;;;;;;;21.90;14.73;;;;;;;8.40;100.00;101504.63;4926348;28;20055;-85
2021/09/20 05:07:22;;;;;;;23.27;15.65;;;;;;;8.40;100.00;101505.50;4938308;28;20067;-85
2021/09/20 05:09:48;;;;;;;22.65;15.52;;;;;;;8.39;100.00;101502.94;4943229;28;20134;-80
2021/09/20 05:12:13;;;;;;;23.00;15.23;;;;;;;8.38;100.00;101507.41;4927664;28;20093;-81
2021/09/20 05:14:39;;;;;;;22.73;15.48;;;;;;;8.41;100.00;101506.34;4941771;28;20071;-81
2021/09/20 05:17:05;;;;;;;22.23;15.15;;;;;;;8.42;100.00;101508.03;4942795;28;20051;-84
2021/09/20 05:19:31;;;;;;;23.33;15.40;;;;;;;8.39;100.00;101510.97;4950655;28;20134;-81
2021/09/20 05:21:56;;;;;;;25.35;15.95;;;;;;;8.37;100.00;101513.72;4939515;28;20055;-83
2021/09/20 05:24:22;;;;;;;22.00;15.25;;;;;;;8.36;100.00;101504.84;4939760;28;20051;-81
2021/09/20 05:26:47;;;;;;;24.00;15.73;;;;;;;8.37;100.00;101513.72;4941641;28;20158;-81
2021/09/20 05:29:12;;;;;;;24.27;15.35;;;;;;;8.39;100.00;101508.28;4935809;28;20047;-81
2021/09/20 05:31:38;;;;;;;23.90;15.48;;;;;;;8.35;100.00;101503.16;4939908;28;20421;-82
2021/09/20 05:34:03;;;;;;;22.30;15.20;;;;;;;8.40;100.00;101509.97;4940462;28;20059;-81
2021/09/20 05:36:29;;;;;;;23.92;15.13;;;;;;;8.43;100.00;101509.69;4939922;28;20085;-81
2021/09/20 05:38:54;;;;;;;22.60;15.77;;;;;;;8.44;100.00;101520.28;4949558;28;20146;-83
2021/09/20 05:41:19;;;;;;;23.25;15.40;;;;;;;8.43;100.00;101515.06;4946733;28;20521;-85
2021/09/20 05:43:45;;;;;;;22.17;14.82;;;;;;;8.40;100.00;101520.66;4946046;28;20047;-83
2021/09/20 05:46:10;;;;;;;21.58;14.75;;;;;;;8.45;100.00;101526.47;4941344;28;20103;-81
2021/09/20 05:48:35;;;;;;;21.52;14.50;;;;;;;8.51;100.00;101533.97;4939199;28;20043;-81
2021/09/20 05:51:01;;;;;;;21.50;14.68;;;;;;;8.52;100.00;101527.66;4946423;28;20097;-84
2021/09/20 05:53:26;;;;;;;27.33;16.50;;;;;;;8.56;100.00;101531.75;4940404;28;20055;-81
2021/09/20 05:55:52;;;;;;;23.48;15.52;;;;;;;8.56;100.00;101529.06;4936981;28;20055;-81
2021/09/20 05:58:17;;;;;;;21.85;14.30;;;;;;;8.58;100.00;101535.16;4940762;28;20675;-82
2021/09/20 06:00:43;;;;;;;21.27;14.70;;;;;;;8.63;100.00;101545.44;4941184;28;20071;-81
2021/09/20 06:03:09;;;;;;;21.15;14.50;;;;;;;8.65;100.00;101546.16;4936552;28;20514;-80
2021/09/20 06:05:38;;;;;;;20.10;14.10;;;;;;;8.70;100.00;101543.94;4935306;28;20062;-81
2021/09/20 06:08:07;;;;;;;19.73;13.63;;;;;;;8.74;100.00;101545.34;4933093;28;20671;-84
2021/09/20 06:10:33;;;;;;;23.10;14.45;;;;;;;8.70;100.00;101558.16;4950108;28;20285;-82
2021/09/20 06:12:59;;;;;;;20.85;14.07;;;;;;;8.78;100.00;101547.63;4941588;28;20074;-81
2021/09/20 06:15:24;;;;;;;20.00;13.70;;;;;;;8.81;100.00;101552.72;4934176;28;20060;-82
2021/09/20 06:17:49;;;;;;;18.65;12.77;;;;;;;8.84;100.00;101558.78;4926854;29;20055;-81
2021/09/20 06:20:15;;;;;;;20.75;14.05;;;;;;;8.91;100.00;101551.91;4923493;28;20063;-81
2021/09/20 06:22:41;;;;;;;20.02;14.38;;;;;;;9.00;100.00;101561.78;4926437;28;20062;-81
2021/09/20 06:25:08;;;;;;;21.83;13.27;;;;;;;9.03;100.00;101561.53;4926070;28;20052;-81
2021/09/20 06:27:34;;;;;;;21.55;13.93;;;;;;;9.13;100.00;101561.56;4926953;29;20066;-82
2021/09/20 06:30:00;;;;;;;18.23;13.75;;;;;;;9.15;100.00;101560.44;4926961;29;20051;-83
2021/09/20 06:32:26;;;;;;;18.05;12.93;;;;;;;9.22;100.00;101561.59;4945255;28;20055;-83
2021/09/20 06:34:51;;;;;;;19.05;13.13;;;;;;;9.27;100.00;101564.72;4941331;28;20573;-81
2021/09/20 06:37:17;;;;;;;18.25;13.32;;;;;;;9.37;100.00;101558.53;4937298;28;20048;-82
2021/09/20 06:39:44;;;;;;;18.45;12.45;;;;;;;9.41;100.00;101573.34;4940586;28;20059;-82
2021/09/20 06:42:09;;;;;;;19.80;12.73;;;;;;;9.49;100.00;101568.13;4934469;28;20059;-84
2021/09/20 06:44:35;;;;;;;16.42;12.25;;;;;;;9.56;100.00;101571.13;4935118;28;20458;-81
2021/09/20 06:47:00;;;;;;;16.55;12.05;;;;;;;9.61;100.00;101568.84;4941824;28;22286;-82
2021/09/20 06:49:26;;;;;;;15.75;11.73;;;;;;;9.68;100.00;101580.72;4944130;28;20434;-83
2021/09/20 06:51:52;;;;;;;17.30;11.85;;;;;;;9.76;100.00;101572.00;4945239;28;20035;-82
2021/09/20 06:54:21;;;;;;;18.75;12.20;;;;;;;9.83;99.92;101578.47;4943290;28;20070;-81
2021/09/20 06:56:47;;;;;;;17.60;12.52;;;;;;;9.89;99.79;101575.22;4940827;28;20574;-82
2021/09/20 06:59:13;;;;;;;21.38;12.30;;;;;;;9.99;99.42;101575.25;4935385;28;20051;-83
2021/09/20 07:01:39;;;;;;;19.25;11.27;;;;;;;10.04;98.93;101573.84;4932768;28;20050;-81
2021/09/20 07:04:05;;;;;;;19.33;11.25;;;;;;;10.12;98.62;101578.47;4936898;28;20048;-82
2021/09/20 07:06:31;;;;;;;17.23;11.68;;;;;;;10.18;98.58;101580.59;4936805;28;20094;-82
2021/09/20 07:08:56;;;;;;;17.80;11.73;;;;;;;10.26;98.30;101587.94;4936491;28;20043;-81
2021/09/20 07:11:22;;;;;;;15.55;11.27;;;;;;;10.32;98.17;101587.38;4933152;28;20047;-82
2021/09/20 07:13:47;;;;;;;14.40;10.88;;;;;;;10.39;98.02;101585.84;4926561;29;20055;-82
2021/09/20 07:16:13;;;;;;;16.75;11.30;;;;;;;10.48;97.21;101587.66;4934717;28;20506;-82
2021/09/20 07:18:39;;;;;;;15.43;10.10;;;;;;;10.54;96.86;101587.06;4940816;28;20055;-84
2021/09/20 07:21:04;;;;;;;15.20;10.05;;;;;;;10.61;96.55;101588.16;4936382;28;20547;-81
2021/09/20 07:23:31;;;;;;;14.75;10.25;;;;;;;10.73;96.43;101583.50;4943581;28;20059;-81
2021/09/20 07:25:56;;;;;;;16.38;10.90;;;;;;;10.84;95.97;101590.50;4942955;28;20067;-83
2021/09/20 07:28:22;;;;;;;15.02;10.32;;;;;;;10.93;95.66;101586.09;4937959;28;20573;-81
2021/09/20 07:30:49;;;;;;;13.02;8.88;;;;;;;11.00;95.17;101593.41;4945239;28;20086;-82
2021/09/20 07:33:15;;;;;;;15.00;9.93;;;;;;;11.10;94.41;101601.44;4941747;28;20053;-81
2021/09/20 07:35:41;;;;;;;12.80;9.13;;;;;;;11.17;94.09;101601.69;4944198;28;20393;-83
2021/09/20 07:38:06;;;;;;;15.13;9.35;;;;;;;11.26;94.34;101607.03;4943985;28;20051;-82
2021/09/20 07:40:34;;;;;;;15.27;9.25;;;;;;;11.37;93.57;101603.28;4941289;28;20058;-82
2021/09/20 07:43:00;;;;;;;12.85;8.73;;;;;;;11.47;93.04;101605.91;4944929;28;20058;-83
2021/09/20 07:45:27;;;;;;;13.63;9.07;;;;;;;11.53;93.05;101605.31;4935514;28;20146;-83
2021/09/20 07:47:53;;;;;;;14.25;9.70;;;;;;;11.61;92.02;101607.25;4936763;28;20047;-82
2021/09/20 07:50:19;;;;;;;14.35;9.18;;;;;;;11.71;92.45;101608.06;4938790;28;20383;-85
2021/09/20 07:52:45;;;;;;;12.40;8.63;;;;;;;11.83;91.94;101611.38;4943639;28;20050;-82
2021/09/20 07:55:13;;;;;;;14.77;9.10;;;;;;;11.90;91.21;101618.69;4940859;28;20051;-82
2021/09/20 07:57:38;;;;;;;11.73;8.93;;;;;;;11.99;90.47;101614.22;4942384;28;20155;-83
2021/09/20 08:00:06;;;;;;;12.63;9.05;;;;;;;12.10;90.98;101613.16;4940979;28;20382;-81
2021/09/20 08:02:32;;;;;;;12.17;8.90;;;;;;;12.23;91.00;101608.25;4942407;28;20077;-81
2021/09/20 08:04:57;;;;;;;12.25;9.15;;;;;;;12.30;89.89;101614.69;4943452;28;20043;-85
2021/09/20 08:07:23;;;;;;;13.07;8.85;;;;;;;12.38;89.69;101616.59;4937360;28;20054;-82
2021/09/20 08:09:48;;;;;;;17.15;9.05;;;;;;;12.47;89.38;101614.81;4940782;28;20406;-82
2021/09/20 08:12:13;;;;;;;14.77;8.77;;;;;;;12.54;88.84;101615.88;4937202;28;20051;-84
2021/09/20 08:14:41;;;;;;;12.38;8.65;;;;;;;12.57;88.41;101626.31;4930453;28;20051;-82
2021/09/20 08:17:07;;;;;;;14.15;9.65;;;;;;;12.70;89.31;101625.91;4934001;28;20035;-83
2021/09/20 08:19:33;;;;;;;14.05;9.35;;;;;;;12.73;87.92;101615.69;4936406;28;20065;-84
2021/09/20 08:21:58;;;;;;;13.43;8.98;;;;;;;12.79;87.35;101620.41;4935758;28;20574;-83
2021/09/20 08:24:24;;;;;;;13.15;8.35;;;;;;;12.82;87.63;101620.09;4937363;28;20466;-83
2021/09/20 08:26:49;;;;;;;10.85;7.82;;;;;;;12.94;87.77;101625.22;4939501;28;20128;-83
2021/09/20 08:29:15;;;;;;;14.65;8.85;;;;;;;12.99;86.87;101626.44;4942372;28;20102;-83
2021/09/20 08:31:40;;;;;;;14.75;8.93;;;;;;;13.01;85.94;101629.00;4942543;28;20043;-86
2021/09/20 08:34:06;;;;;;;12.05;8.35;;;;;;;13.08;86.36;101630.03;4917620;29;20519;-83
2021/09/20 08:36:32;;;;;;;12.02;8.43;;;;;;;13.15;86.00;101627.53;4928940;28;20055;-85
2021/09/20 08:38:57;;;;;;;13.45;8.25;;;;;;;13.22;85.73;101633.97;4942024;28;20487;-81
2021/09/20 08:41:22;;;;;;;14.82;8.65;;;;;;;13.29;85.35;101632.34;4939111;28;20055;-82
2021/09/20 08:43:49;;;;;;;14.05;8.88;;;;;;;13.27;84.02;101646.00;4937430;28;20048;-84
2021/09/20 08:46:14;;;;;;;15.38;8.23;;;;;;;13.30;85.25;101645.66;4940561;28;20055;-82
2021/09/20 08:48:48;;;;;;;13.40;8.38;;;;;;;13.38;85.07;101641.31;4931639;29;20036;-83
2021/09/20 08:51:16;;;;;;;11.25;8.10;;;;;;;13.50;86.13;101646.25;4930616;29;20055;-82
2021/09/20 08:53:42;;;;;;;12.15;8.27;;;;;;;13.56;83.73;101650.16;4931346;29;20048;-83
2021/09/20 08:56:07;;;;;;;11.85;8.63;;;;;;;13.58;83.35;101653.53;4943891;28;20043;-82
2021/09/20 08:58:33;;;;;;;13.48;8.80;;;;;;;13.65;83.89;101654.56;4931708;29;20137;-82
2021/09/20 09:00:59;;;;;;;11.82;8.45;;;;;;;13.75;83.58;101657.13;4931895;29;20138;-83
2021/09/20 09:03:26;;;;;;;11.60;7.88;;;;;;;13.84;83.07;101656.16;4930642;29;20078;-83
2021/09/20 09:05:52;;;;;;;14.63;8.57;;;;;;;13.96;82.76;101659.38;4932084;29;20047;-82
2021/09/20 09:08:18;;;;;;;14.32;8.23;;;;;;;14.04;81.16;101656.72;4953266;28;20401;-85
2021/09/20 09:10:58;;;;;;;11.90;7.85;;;;;;;14.09;81.84;101672.38;4950154;28;20486;-82
2021/09/20 09:13:43;;;;;;;11.13;7.25;;;;;;;14.12;78.12;101677.44;4939171;28;20055;-82
2021/09/20 09:16:37;;;;;;;12.60;7.40;;;;;;;14.19;78.56;101678.47;4940282;28;20043;-82
2021/09/20 09:19:09;;;;;;;12.05;7.90;;;;;;;14.25;79.33;101687.78;4929829;28;20039;-82
2021/09/20 09:21:38;;;;;;;10.30;7.90;;;;;;;14.31;79.13;101682.53;4949567;28;20134;-86
2021/09/20 09:24:15;;;;;;;10.38;7.15;;;;;;;14.39;77.99;101677.16;4930296;29;20059;-82
2021/09/20 09:26:58;;;;;;;9.43;7.15;;;;;;;14.48;78.80;101679.88;4950810;28;20131;-83
2021/09/20 09:29:24;;;;;;;10.25;6.85;;;;;;;14.59;78.55;101683.09;4948175;28;20130;-82
2021/09/20 09:31:55;;;;;;;12.40;7.50;;;;;;;14.69;76.86;101679.38;4950565;28;20043;-85
2021/09/20 09:34:23;;;;;;;9.40;7.18;;;;;;;14.72;78.14;101687.13;4949459;28;20043;-82
2021/09/20 09:36:49;;;;;;;9.50;6.95;;;;;;;14.78;76.36;101686.47;4949755;28;20568;-82
2021/09/20 09:39:29;;;;;;;12.55;7.53;;;;;;;14.81;75.61;101699.63;4939900;28;20052;-86
2021/09/20 09:41:55;;;;;;;11.75;7.60;;;;;;;14.83;76.24;101694.91;4950218;28;20074;-83
2021/09/20 09:44:26;;;;;;;10.35;6.90;;;;;;;14.93;75.58;101698.25;4949583;28;20109;-82
2021/09/20 09:46:52;;;;;;;8.50;6.85;;;;;;;14.88;71.35;101696.09;4931522;28;20054;-86
2021/09/20 09:49:22;;;;;;;9.10;7.05;;;;;;;14.93;72.93;101698.25;4948625;28;20047;-83
2021/09/20 09:52:10;;;;;;;8.68;7.40;;;;;;;14.88;73.39;101697.94;4950226;28;20115;-83
2021/09/20 09:54:40;;;;;;;9.95;7.30;;;;;;;14.88;74.74;101696.09;4943384;28;20090;-83
2021/09/20 09:57:24;;;;;;;9.23;7.25;;;;;;;14.83;72.13;101697.59;4949512;28;20058;-83
2021/09/20 09:59:56;;;;;;;9.82;7.40;;;;;;;14.80;72.92;101692.53;4954094;28;20047;-83
2021/09/20 10:02:26;;;;;;;9.02;7.22;;;;;;;14.75;71.89;101694.91;4948337;28;20051;-83
2021/09/20 10:04:56;;;;;;;10.73;8.43;;;;;;;14.77;73.69;101687.47;4949891;28;20142;-83
2021/09/20 10:07:26;;;;;;;9.63;7.30;;;;;;;14.87;72.61;101696.25;4949446;28;20051;-82
2021/09/20 10:09:52;;;;;;;8.73;7.05;;;;;;;14.95;72.57;101690.81;4941567;28;20105;-86
2021/09/20 10:12:21;;;;;;;9.40;6.97;;;;;;;15.02;73.29;101691.00;4940608;28;20518;-82
2021/09/20 10:14:47;;;;;;;10.15;6.95;;;;;;;14.98;71.28;101698.59;4948200;28;20136;-82
2021/09/20 10:17:18;;;;;;;7.57;6.40;;;;;;;14.92;71.81;101696.56;4940131;28;20121;-84
2021/09/20 10:19:44;;;;;;;9.60;6.50;;;;;;;14.84;72.27;101699.28;4951209;28;20042;-86
2021/09/20 10:22:11;;;;;;;9.32;6.47;;;;;;;14.83;72.61;101706.56;4938864;28;20606;-86
2021/09/20 10:24:36;;;;;;;11.18;5.93;;;;;;;14.80;72.11;101703.34;4942909;28;20089;-85
2021/09/20 10:27:02;;;;;;;8.13;6.20;;;;;;;14.78;71.06;101705.38;4949948;28;20138;-82
2021/09/20 10:29:28;;;;;;;8.00;5.93;;;;;;;14.80;71.80;101704.19;4944565;28;20047;-83
2021/09/20 10:31:53;;;;;;;7.60;5.38;;;;;;;14.87;69.52;101697.09;4942341;28;20051;-87
2021/09/20 10:34:23;;;;;;;7.97;5.57;;;;;;;14.93;70.07;101702.81;4933047;28;20039;-87
2021/09/20 10:36:51;;;;;;;6.38;5.10;;;;;;;14.95;69.58;101701.63;4949800;28;20150;-83
2021/09/20 10:39:17;;;;;;;6.22;4.95;;;;;;;14.96;69.36;101702.47;4948013;28;20517;-85
2021/09/20 10:41:43;;;;;;;8.85;4.95;;;;;;;14.91;69.47;101704.88;4941794;28;20736;-84
2021/09/20 10:44:12;;;;;;;7.72;5.43;;;;;;;14.85;70.48;101701.84;4941290;28;20174;-83
2021/09/20 10:46:38;;;;;;;;;;;;;;;14.84;69.47;101702.81;4925797;28;20047;-84
2021/09/20 10:49:18;;;;;;;6.30;4.75;;;;;;;14.70;68.61;101705.38;4938915;28;19922;-83
2021/09/20 10:52:00;;;;;;;6.72;5.00;;;;;;;14.70;70.40;101708.06;4938140;28;20507;-83
2021/09/20 10:54:26;;;;;;;7.50;4.28;;;;;;;14.67;68.64;101706.53;4935831;28;20046;-83
2021/09/20 10:57:17;;;;;;;5.55;4.38;;;;;;;14.69;69.74;101701.81;4946018;28;20094;-83
2021/09/20 10:59:43;;;;;;;6.45;4.30;;;;;;;14.71;69.40;101702.50;4907658;28;20186;-87
2021/09/20 11:02:22;;;;;;;6.05;4.50;;;;;;;14.71;70.23;101713.31;4938247;28;20430;-83
2021/09/20 11:04:48;;;;;;;5.82;4.63;;;;;;;14.69;70.38;101706.41;4944531;28;20064;-83
2021/09/20 11:07:18;;;;;;;7.55;5.10;;;;;;;14.71;70.24;101707.91;4939952;28;20479;-83
2021/09/20 11:09:51;;;;;;;8.70;5.15;;;;;;;14.77;70.44;101717.19;4942574;28;20059;-87
2021/09/20 11:12:23;;;;;;;10.00;5.20;;;;;;;14.78;71.11;101711.63;4942167;28;20113;-82